Bridgeport, Connecticut
Current Conditions -  °F | °C
As of 10:52 AM on Wednesday 22 Oct 2014 (Local Time) from KBDR Reporting Station
Light Rain Light Rain  
Wind Chill: 56°   Ceiling: 2900
Heat Index: 56°   Visibility: 10mi
Dew Point: 51°   Wind: 17mph
Humidity: 84%   Direction: 30°NNE
Pressure: 29.93"   Gusts: NA
Location:  41.18°N, 73.19°W
Report Text: KBDR 221452Z 03015KT 10SM -RA SCT018 BKN029 OVC090 13/11 A2993 RMK AO2 SLP134 P0000 60000 T01330106 58001
Loading
Personal Weather Stations






























Interactive Weather Map
Tropical Storm Tracking
New forecast layout! Learn more

10-Day Weather Forecast

Advertisements
Track Severe Weather on mobile